sensor_id;sensor_type;location;lat;lon;timestamp;temperature;humidity
32706;DHT22;19094;50.972;3.538;2023-10-31T00:00:18;15.60;74.90
32706;DHT22;19094;50.972;3.538;2023-10-31T00:02:43;15.60;74.80
32706;DHT22;19094;50.972;3.538;2023-10-31T00:05:09;15.60;74.60
32706;DHT22;19094;50.972;3.538;2023-10-31T00:07:34;15.60;74.60
32706;DHT22;19094;50.972;3.538;2023-10-31T00:10:01;15.60;74.60
32706;DHT22;19094;50.972;3.538;2023-10-31T00:12:26;15.60;74.70
32706;DHT22;19094;50.972;3.538;2023-10-31T00:14:52;15.60;74.70
32706;DHT22;19094;50.972;3.538;2023-10-31T00:17:18;15.60;75.50
32706;DHT22;19094;50.972;3.538;2023-10-31T00:19:44;15.60;74.70
32706;DHT22;19094;50.972;3.538;2023-10-31T00:22:10;15.60;74.70
32706;DHT22;19094;50.972;3.538;2023-10-31T00:24:35;15.60;75.50
32706;DHT22;19094;50.972;3.538;2023-10-31T00:27:01;15.60;74.80
32706;DHT22;19094;50.972;3.538;2023-10-31T00:29:27;15.60;74.80
32706;DHT22;19094;50.972;3.538;2023-10-31T00:31:52;15.60;74.80
32706;DHT22;19094;50.972;3.538;2023-10-31T00:34:19;15.60;74.80
32706;DHT22;19094;50.972;3.538;2023-10-31T00:36:45;15.60;74.80
32706;DHT22;19094;50.972;3.538;2023-10-31T00:39:11;15.60;74.80
32706;DHT22;19094;50.972;3.538;2023-10-31T00:41:38;15.60;74.70
32706;DHT22;19094;50.972;3.538;2023-10-31T00:44:04;15.60;74.60
32706;DHT22;19094;50.972;3.538;2023-10-31T00:46:30;15.60;74.50
32706;DHT22;19094;50.972;3.538;2023-10-31T00:48:55;15.60;74.60
32706;DHT22;19094;50.972;3.538;2023-10-31T00:51:21;15.60;74.60
32706;DHT22;19094;50.972;3.538;2023-10-31T00:53:47;15.50;74.70
32706;DHT22;19094;50.972;3.538;2023-10-31T00:56:12;15.50;74.70
32706;DHT22;19094;50.972;3.538;2023-10-31T00:58:38;15.50;74.90
32706;DHT22;19094;50.972;3.538;2023-10-31T01:01:04;15.50;74.90
32706;DHT22;19094;50.972;3.538;2023-10-31T01:03:29;15.50;74.80
32706;DHT22;19094;50.972;3.538;2023-10-31T01:05:55;15.50;74.70
32706;DHT22;19094;50.972;3.538;2023-10-31T01:08:21;15.50;74.80
32706;DHT22;19094;50.972;3.538;2023-10-31T01:10:46;15.50;74.80
32706;DHT22;19094;50.972;3.538;2023-10-31T01:13:12;15.50;74.80
32706;DHT22;19094;50.972;3.538;2023-10-31T01:15:38;15.50;74.80
32706;DHT22;19094;50.972;3.538;2023-10-31T01:18:03;15.50;74.90
32706;DHT22;19094;50.972;3.538;2023-10-31T01:20:29;15.50;74.80
32706;DHT22;19094;50.972;3.538;2023-10-31T01:22:55;15.50;74.80
32706;DHT22;19094;50.972;3.538;2023-10-31T01:25:20;15.50;74.80
32706;DHT22;19094;50.972;3.538;2023-10-31T01:27:46;15.60;74.70
32706;DHT22;19094;50.972;3.538;2023-10-31T01:30:12;15.60;74.60
32706;DHT22;19094;50.972;3.538;2023-10-31T01:32:38;15.60;74.60
32706;DHT22;19094;50.972;3.538;2023-10-31T01:35:04;15.60;74.60
32706;DHT22;19094;50.972;3.538;2023-10-31T01:37:29;15.60;74.50
32706;DHT22;19094;50.972;3.538;2023-10-31T01:39:55;15.50;74.50
32706;DHT22;19094;50.972;3.538;2023-10-31T01:42:21;15.60;74.60
32706;DHT22;19094;50.972;3.538;2023-10-31T01:44:46;15.50;74.30
32706;DHT22;19094;50.972;3.538;2023-10-31T01:47:12;15.60;74.40
32706;DHT22;19094;50.972;3.538;2023-10-31T01:49:38;15.60;74.30
32706;DHT22;19094;50.972;3.538;2023-10-31T01:52:04;15.60;74.20
32706;DHT22;19094;50.972;3.538;2023-10-31T01:54:35;15.50;74.00
32706;DHT22;19094;50.972;3.538;2023-10-31T01:57:02;15.50;74.10
32706;DHT22;19094;50.972;3.538;2023-10-31T01:59:28;15.50;74.30
32706;DHT22;19094;50.972;3.538;2023-10-31T02:01:55;15.50;74.20
32706;DHT22;19094;50.972;3.538;2023-10-31T02:04:25;15.50;74.10
32706;DHT22;19094;50.972;3.538;2023-10-31T02:06:51;15.50;75.00
32706;DHT22;19094;50.972;3.538;2023-10-31T02:09:17;15.50;73.90
32706;DHT22;19094;50.972;3.538;2023-10-31T02:11:42;15.50;73.90
32706;DHT22;19094;50.972;3.538;2023-10-31T02:14:08;15.50;74.00
32706;DHT22;19094;50.972;3.538;2023-10-31T02:16:33;15.40;73.90
32706;DHT22;19094;50.972;3.538;2023-10-31T02:18:59;15.40;74.10
32706;DHT22;19094;50.972;3.538;2023-10-31T02:21:25;15.40;73.90
32706;DHT22;19094;50.972;3.538;2023-10-31T02:24:03;15.40;73.70
32706;DHT22;19094;50.972;3.538;2023-10-31T02:26:34;15.40;73.90
32706;DHT22;19094;50.972;3.538;2023-10-31T02:29:00;15.40;73.70
32706;DHT22;19094;50.972;3.538;2023-10-31T02:31:27;15.40;73.90
32706;DHT22;19094;50.972;3.538;2023-10-31T02:33:52;15.40;73.80
32706;DHT22;19094;50.972;3.538;2023-10-31T02:36:19;15.40;73.90
32706;DHT22;19094;50.972;3.538;2023-10-31T02:38:45;15.40;73.90
32706;DHT22;19094;50.972;3.538;2023-10-31T02:41:11;15.40;74.60
32706;DHT22;19094;50.972;3.538;2023-10-31T02:43:38;15.40;73.80
32706;DHT22;19094;50.972;3.538;2023-10-31T02:46:04;15.30;73.90
32706;DHT22;19094;50.972;3.538;2023-10-31T02:48:30;15.30;73.70
32706;DHT22;19094;50.972;3.538;2023-10-31T02:50:57;15.30;73.80
32706;DHT22;19094;50.972;3.538;2023-10-31T02:53:23;15.30;73.80
32706;DHT22;19094;50.972;3.538;2023-10-31T02:55:49;15.30;73.90
32706;DHT22;19094;50.972;3.538;2023-10-31T02:58:14;15.30;73.70
32706;DHT22;19094;50.972;3.538;2023-10-31T03:00:42;15.30;73.70
32706;DHT22;19094;50.972;3.538;2023-10-31T03:03:08;15.30;73.80
32706;DHT22;19094;50.972;3.538;2023-10-31T03:05:34;15.30;74.00
32706;DHT22;19094;50.972;3.538;2023-10-31T03:08:00;15.30;73.90
32706;DHT22;19094;50.972;3.538;2023-10-31T03:10:26;15.20;73.80
32706;DHT22;19094;50.972;3.538;2023-10-31T03:12:52;15.20;73.80
32706;DHT22;19094;50.972;3.538;2023-10-31T03:15:18;15.20;73.80
32706;DHT22;19094;50.972;3.538;2023-10-31T03:17:43;15.20;73.80
32706;DHT22;19094;50.972;3.538;2023-10-31T03:20:09;15.20;73.90
32706;DHT22;19094;50.972;3.538;2023-10-31T03:22:35;15.20;74.00
32706;DHT22;19094;50.972;3.538;2023-10-31T03:25:01;15.20;73.90
32706;DHT22;19094;50.972;3.538;2023-10-31T03:27:26;15.20;73.80
32706;DHT22;19094;50.972;3.538;2023-10-31T03:29:52;15.20;74.00
32706;DHT22;19094;50.972;3.538;2023-10-31T03:32:18;15.20;73.90
32706;DHT22;19094;50.972;3.538;2023-10-31T03:34:43;15.20;73.60
32706;DHT22;19094;50.972;3.538;2023-10-31T03:37:09;15.20;73.90
32706;DHT22;19094;50.972;3.538;2023-10-31T03:39:34;15.20;73.80
32706;DHT22;19094;50.972;3.538;2023-10-31T03:42:00;15.20;73.60
32706;DHT22;19094;50.972;3.538;2023-10-31T03:44:26;15.20;73.80
32706;DHT22;19094;50.972;3.538;2023-10-31T03:46:51;15.20;73.60
32706;DHT22;19094;50.972;3.538;2023-10-31T03:49:17;15.20;73.80
32706;DHT22;19094;50.972;3.538;2023-10-31T03:51:43;15.20;73.80
32706;DHT22;19094;50.972;3.538;2023-10-31T03:54:08;15.10;73.60
32706;DHT22;19094;50.972;3.538;2023-10-31T03:56:41;15.10;73.70
32706;DHT22;19094;50.972;3.538;2023-10-31T03:59:07;15.10;74.00
32706;DHT22;19094;50.972;3.538;2023-10-31T04:01:33;15.10;73.80
32706;DHT22;19094;50.972;3.538;2023-10-31T04:03:59;15.10;73.70
32706;DHT22;19094;50.972;3.538;2023-10-31T04:06:24;15.10;73.60
32706;DHT22;19094;50.972;3.538;2023-10-31T04:08:50;15.10;73.80
32706;DHT22;19094;50.972;3.538;2023-10-31T04:11:15;15.10;73.70
32706;DHT22;19094;50.972;3.538;2023-10-31T04:13:41;15.10;73.70
32706;DHT22;19094;50.972;3.538;2023-10-31T04:16:07;15.10;74.00
32706;DHT22;19094;50.972;3.538;2023-10-31T04:18:33;15.10;73.90
32706;DHT22;19094;50.972;3.538;2023-10-31T04:20:58;15.10;73.90
32706;DHT22;19094;50.972;3.538;2023-10-31T04:23:24;15.10;73.90
32706;DHT22;19094;50.972;3.538;2023-10-31T04:25:50;15.10;73.60
32706;DHT22;19094;50.972;3.538;2023-10-31T04:28:18;15.10;73.80
32706;DHT22;19094;50.972;3.538;2023-10-31T04:30:43;15.10;74.00
32706;DHT22;19094;50.972;3.538;2023-10-31T04:33:09;15.10;74.00
32706;DHT22;19094;50.972;3.538;2023-10-31T04:35:35;15.10;73.90
32706;DHT22;19094;50.972;3.538;2023-10-31T04:38:00;15.10;74.00
32706;DHT22;19094;50.972;3.538;2023-10-31T04:40:26;15.10;74.00
32706;DHT22;19094;50.972;3.538;2023-10-31T04:42:52;15.00;73.80
32706;DHT22;19094;50.972;3.538;2023-10-31T04:45:17;15.10;74.00
32706;DHT22;19094;50.972;3.538;2023-10-31T04:47:43;15.00;74.00
32706;DHT22;19094;50.972;3.538;2023-10-31T04:50:09;15.00;74.00
32706;DHT22;19094;50.972;3.538;2023-10-31T04:52:35;15.10;73.90
32706;DHT22;19094;50.972;3.538;2023-10-31T04:55:01;15.10;73.70
32706;DHT22;19094;50.972;3.538;2023-10-31T04:57:26;15.00;73.80
32706;DHT22;19094;50.972;3.538;2023-10-31T04:59:52;15.10;73.80
32706;DHT22;19094;50.972;3.538;2023-10-31T05:02:21;15.10;73.90
32706;DHT22;19094;50.972;3.538;2023-10-31T05:04:48;15.00;73.80
32706;DHT22;19094;50.972;3.538;2023-10-31T05:07:16;15.00;73.90
32706;DHT22;19094;50.972;3.538;2023-10-31T05:09:42;15.00;73.90
32706;DHT22;19094;50.972;3.538;2023-10-31T05:12:08;15.10;74.00
32706;DHT22;19094;50.972;3.538;2023-10-31T05:14:33;15.10;73.90
32706;DHT22;19094;50.972;3.538;2023-10-31T05:16:59;15.10;74.00
32706;DHT22;19094;50.972;3.538;2023-10-31T05:19:24;15.10;74.20
32706;DHT22;19094;50.972;3.538;2023-10-31T05:21:51;15.10;74.20
32706;DHT22;19094;50.972;3.538;2023-10-31T05:24:17;15.00;74.10
32706;DHT22;19094;50.972;3.538;2023-10-31T05:26:43;15.10;74.20
32706;DHT22;19094;50.972;3.538;2023-10-31T05:29:09;15.10;74.20
32706;DHT22;19094;50.972;3.538;2023-10-31T05:31:35;15.00;74.20
32706;DHT22;19094;50.972;3.538;2023-10-31T05:34:01;15.00;74.30
32706;DHT22;19094;50.972;3.538;2023-10-31T05:36:26;15.10;74.20
32706;DHT22;19094;50.972;3.538;2023-10-31T05:38:53;15.00;74.20
32706;DHT22;19094;50.972;3.538;2023-10-31T05:41:19;15.10;74.10
32706;DHT22;19094;50.972;3.538;2023-10-31T05:43:45;15.10;74.20
32706;DHT22;19094;50.972;3.538;2023-10-31T05:46:10;15.10;74.30
32706;DHT22;19094;50.972;3.538;2023-10-31T05:48:40;15.00;74.40
32706;DHT22;19094;50.972;3.538;2023-10-31T05:51:17;15.10;74.40
32706;DHT22;19094;50.972;3.538;2023-10-31T05:53:45;15.10;74.10
32706;DHT22;19094;50.972;3.538;2023-10-31T05:56:12;15.10;74.50
32706;DHT22;19094;50.972;3.538;2023-10-31T05:58:38;15.10;74.00
32706;DHT22;19094;50.972;3.538;2023-10-31T06:01:05;15.10;74.10
32706;DHT22;19094;50.972;3.538;2023-10-31T06:03:31;15.10;74.30
32706;DHT22;19094;50.972;3.538;2023-10-31T06:05:57;15.00;74.30
32706;DHT22;19094;50.972;3.538;2023-10-31T06:08:23;15.10;74.40
32706;DHT22;19094;50.972;3.538;2023-10-31T06:10:50;15.00;74.40
32706;DHT22;19094;50.972;3.538;2023-10-31T06:13:16;15.00;74.40
32706;DHT22;19094;50.972;3.538;2023-10-31T06:15:42;15.10;74.40
32706;DHT22;19094;50.972;3.538;2023-10-31T06:18:08;15.10;74.20
32706;DHT22;19094;50.972;3.538;2023-10-31T06:20:33;15.10;74.20
32706;DHT22;19094;50.972;3.538;2023-10-31T06:23:01;15.10;74.20
32706;DHT22;19094;50.972;3.538;2023-10-31T06:25:29;15.10;74.10
32706;DHT22;19094;50.972;3.538;2023-10-31T06:27:55;15.00;74.20
32706;DHT22;19094;50.972;3.538;2023-10-31T06:30:20;15.10;74.20
32706;DHT22;19094;50.972;3.538;2023-10-31T06:32:46;15.10;74.20
32706;DHT22;19094;50.972;3.538;2023-10-31T06:35:12;15.10;74.20
32706;DHT22;19094;50.972;3.538;2023-10-31T06:37:37;15.10;74.10
32706;DHT22;19094;50.972;3.538;2023-10-31T06:40:04;15.10;74.20
32706;DHT22;19094;50.972;3.538;2023-10-31T06:42:30;15.10;74.00
32706;DHT22;19094;50.972;3.538;2023-10-31T06:44:56;15.10;74.00
32706;DHT22;19094;50.972;3.538;2023-10-31T06:47:21;15.10;74.10
32706;DHT22;19094;50.972;3.538;2023-10-31T06:49:47;15.10;74.10
32706;DHT22;19094;50.972;3.538;2023-10-31T06:52:13;15.10;74.10
32706;DHT22;19094;50.972;3.538;2023-10-31T06:54:38;15.00;74.10
32706;DHT22;19094;50.972;3.538;2023-10-31T06:57:04;15.10;74.00
32706;DHT22;19094;50.972;3.538;2023-10-31T06:59:30;15.10;74.00
32706;DHT22;19094;50.972;3.538;2023-10-31T07:01:55;15.00;74.10
32706;DHT22;19094;50.972;3.538;2023-10-31T07:04:21;15.00;74.00
32706;DHT22;19094;50.972;3.538;2023-10-31T07:06:47;15.00;74.00
32706;DHT22;19094;50.972;3.538;2023-10-31T07:09:12;15.00;74.10
32706;DHT22;19094;50.972;3.538;2023-10-31T07:11:38;15.00;74.20
32706;DHT22;19094;50.972;3.538;2023-10-31T07:14:04;15.00;74.10
32706;DHT22;19094;50.972;3.538;2023-10-31T07:16:32;15.00;74.10
32706;DHT22;19094;50.972;3.538;2023-10-31T07:18:58;15.00;74.00
32706;DHT22;19094;50.972;3.538;2023-10-31T07:21:24;15.00;74.10
32706;DHT22;19094;50.972;3.538;2023-10-31T07:23:51;15.10;74.90
32706;DHT22;19094;50.972;3.538;2023-10-31T07:26:17;15.00;73.80
32706;DHT22;19094;50.972;3.538;2023-10-31T07:28:42;15.00;73.60
32706;DHT22;19094;50.972;3.538;2023-10-31T07:31:08;15.00;73.60
32706;DHT22;19094;50.972;3.538;2023-10-31T07:33:34;15.00;73.70
32706;DHT22;19094;50.972;3.538;2023-10-31T07:36:00;15.00;73.70
32706;DHT22;19094;50.972;3.538;2023-10-31T07:38:26;15.00;73.70
32706;DHT22;19094;50.972;3.538;2023-10-31T07:40:51;15.00;73.60
32706;DHT22;19094;50.972;3.538;2023-10-31T07:43:17;15.00;73.70
32706;DHT22;19094;50.972;3.538;2023-10-31T07:45:43;15.10;73.70
32706;DHT22;19094;50.972;3.538;2023-10-31T07:48:09;15.00;73.60
32706;DHT22;19094;50.972;3.538;2023-10-31T07:50:34;15.10;73.60
32706;DHT22;19094;50.972;3.538;2023-10-31T07:53:00;15.00;73.60
32706;DHT22;19094;50.972;3.538;2023-10-31T07:55:26;15.00;73.70
32706;DHT22;19094;50.972;3.538;2023-10-31T07:57:51;15.00;73.60
32706;DHT22;19094;50.972;3.538;2023-10-31T08:00:17;15.00;73.50
32706;DHT22;19094;50.972;3.538;2023-10-31T08:02:43;15.00;73.50
32706;DHT22;19094;50.972;3.538;2023-10-31T08:05:10;15.00;73.40
32706;DHT22;19094;50.972;3.538;2023-10-31T08:07:36;15.10;73.50
32706;DHT22;19094;50.972;3.538;2023-10-31T08:10:02;15.10;73.30
32706;DHT22;19094;50.972;3.538;2023-10-31T08:12:29;15.00;73.30
32706;DHT22;19094;50.972;3.538;2023-10-31T08:14:55;15.10;73.60
32706;DHT22;19094;50.972;3.538;2023-10-31T08:17:20;15.10;73.50
32706;DHT22;19094;50.972;3.538;2023-10-31T08:19:46;15.10;73.50
32706;DHT22;19094;50.972;3.538;2023-10-31T08:22:13;15.10;73.40
32706;DHT22;19094;50.972;3.538;2023-10-31T08:24:39;15.10;73.50
32706;DHT22;19094;50.972;3.538;2023-10-31T08:27:05;15.10;73.40
32706;DHT22;19094;50.972;3.538;2023-10-31T08:29:31;15.20;74.50
32706;DHT22;19094;50.972;3.538;2023-10-31T08:31:56;15.30;74.80
32706;DHT22;19094;50.972;3.538;2023-10-31T08:34:22;15.20;74.10
32706;DHT22;19094;50.972;3.538;2023-10-31T08:36:48;15.10;74.40
32706;DHT22;19094;50.972;3.538;2023-10-31T08:39:14;15.20;73.60
32706;DHT22;19094;50.972;3.538;2023-10-31T08:41:53;15.10;73.60
32706;DHT22;19094;50.972;3.538;2023-10-31T08:44:19;15.10;73.90
32706;DHT22;19094;50.972;3.538;2023-10-31T08:46:45;15.10;73.90
32706;DHT22;19094;50.972;3.538;2023-10-31T08:49:11;15.10;73.70
32706;DHT22;19094;50.972;3.538;2023-10-31T08:51:37;15.10;73.60
32706;DHT22;19094;50.972;3.538;2023-10-31T08:54:03;15.20;73.40
32706;DHT22;19094;50.972;3.538;2023-10-31T08:56:28;15.20;73.20
32706;DHT22;19094;50.972;3.538;2023-10-31T08:58:54;15.20;73.20
32706;DHT22;19094;50.972;3.538;2023-10-31T09:01:20;15.20;73.20
32706;DHT22;19094;50.972;3.538;2023-10-31T09:03:46;15.10;73.30
32706;DHT22;19094;50.972;3.538;2023-10-31T09:06:12;15.10;73.70
32706;DHT22;19094;50.972;3.538;2023-10-31T09:08:37;15.10;73.50
32706;DHT22;19094;50.972;3.538;2023-10-31T09:11:04;15.00;73.70
32706;DHT22;19094;50.972;3.538;2023-10-31T09:13:30;15.10;73.90
32706;DHT22;19094;50.972;3.538;2023-10-31T09:16:00;15.20;73.40
32706;DHT22;19094;50.972;3.538;2023-10-31T09:18:26;15.20;73.40
32706;DHT22;19094;50.972;3.538;2023-10-31T09:20:52;15.20;73.10
32706;DHT22;19094;50.972;3.538;2023-10-31T09:23:18;15.10;73.30
32706;DHT22;19094;50.972;3.538;2023-10-31T09:25:44;15.10;73.50
32706;DHT22;19094;50.972;3.538;2023-10-31T09:28:10;15.10;73.50
32706;DHT22;19094;50.972;3.538;2023-10-31T09:30:36;15.10;73.30
32706;DHT22;19094;50.972;3.538;2023-10-31T09:33:02;15.20;73.30
32706;DHT22;19094;50.972;3.538;2023-10-31T09:35:27;15.10;73.20
32706;DHT22;19094;50.972;3.538;2023-10-31T09:37:54;15.10;73.20
32706;DHT22;19094;50.972;3.538;2023-10-31T09:40:20;15.10;73.30
32706;DHT22;19094;50.972;3.538;2023-10-31T09:42:46;15.10;73.70
32706;DHT22;19094;50.972;3.538;2023-10-31T09:45:12;15.10;73.50
32706;DHT22;19094;50.972;3.538;2023-10-31T09:47:39;15.10;73.30
32706;DHT22;19094;50.972;3.538;2023-10-31T09:50:06;15.10;73.40
32706;DHT22;19094;50.972;3.538;2023-10-31T09:52:34;15.10;73.30
32706;DHT22;19094;50.972;3.538;2023-10-31T09:55:02;15.10;73.40
32706;DHT22;19094;50.972;3.538;2023-10-31T09:57:28;15.10;73.30
32706;DHT22;19094;50.972;3.538;2023-10-31T09:59:54;15.10;73.30
32706;DHT22;19094;50.972;3.538;2023-10-31T10:02:20;15.00;73.40
32706;DHT22;19094;50.972;3.538;2023-10-31T10:04:46;15.00;73.70
32706;DHT22;19094;50.972;3.538;2023-10-31T10:07:16;15.10;73.60
32706;DHT22;19094;50.972;3.538;2023-10-31T10:09:43;15.10;73.30
32706;DHT22;19094;50.972;3.538;2023-10-31T10:12:13;15.10;73.20
32706;DHT22;19094;50.972;3.538;2023-10-31T10:14:39;15.10;74.30
32706;DHT22;19094;50.972;3.538;2023-10-31T10:17:22;15.20;75.20
32706;DHT22;19094;50.972;3.538;2023-10-31T10:19:48;15.30;75.20
32706;DHT22;19094;50.972;3.538;2023-10-31T10:22:13;15.30;74.20
32706;DHT22;19094;50.972;3.538;2023-10-31T10:24:41;15.20;74.50
32706;DHT22;19094;50.972;3.538;2023-10-31T10:27:08;15.20;74.80
32706;DHT22;19094;50.972;3.538;2023-10-31T10:29:34;15.20;74.60
32706;DHT22;19094;50.972;3.538;2023-10-31T10:32:00;15.20;74.60
32706;DHT22;19094;50.972;3.538;2023-10-31T10:34:26;15.20;74.50
32706;DHT22;19094;50.972;3.538;2023-10-31T10:36:53;15.10;74.50
32706;DHT22;19094;50.972;3.538;2023-10-31T10:39:22;15.10;74.40
32706;DHT22;19094;50.972;3.538;2023-10-31T10:41:55;15.10;74.70
32706;DHT22;19094;50.972;3.538;2023-10-31T10:46:55;15.10;74.30
32706;DHT22;19094;50.972;3.538;2023-10-31T10:49:24;15.10;74.30
32706;DHT22;19094;50.972;3.538;2023-10-31T10:54:37;15.10;74.20
32706;DHT22;19094;50.972;3.538;2023-10-31T10:57:20;15.10;74.30
32706;DHT22;19094;50.972;3.538;2023-10-31T10:59:48;15.10;74.30
32706;DHT22;19094;50.972;3.538;2023-10-31T11:02:17;15.10;74.50
32706;DHT22;19094;50.972;3.538;2023-10-31T11:04:43;15.10;74.50
32706;DHT22;19094;50.972;3.538;2023-10-31T11:07:09;15.10;74.30
32706;DHT22;19094;50.972;3.538;2023-10-31T11:09:36;15.10;74.70
32706;DHT22;19094;50.972;3.538;2023-10-31T11:12:03;15.10;74.30
32706;DHT22;19094;50.972;3.538;2023-10-31T11:14:30;15.10;74.40
32706;DHT22;19094;50.972;3.538;2023-10-31T11:16:59;15.10;74.50
32706;DHT22;19094;50.972;3.538;2023-10-31T11:19:27;15.10;74.60
32706;DHT22;19094;50.972;3.538;2023-10-31T11:22:12;15.10;74.70
32706;DHT22;19094;50.972;3.538;2023-10-31T11:24:38;15.10;74.70
32706;DHT22;19094;50.972;3.538;2023-10-31T11:27:07;15.10;74.80
32706;DHT22;19094;50.972;3.538;2023-10-31T11:29:33;15.10;74.80
32706;DHT22;19094;50.972;3.538;2023-10-31T11:32:00;15.10;74.90
32706;DHT22;19094;50.972;3.538;2023-10-31T11:34:26;15.10;74.80
32706;DHT22;19094;50.972;3.538;2023-10-31T11:36:52;15.10;74.80
32706;DHT22;19094;50.972;3.538;2023-10-31T11:39:20;15.10;75.00
32706;DHT22;19094;50.972;3.538;2023-10-31T11:41:54;15.10;75.00
32706;DHT22;19094;50.972;3.538;2023-10-31T11:44:26;15.10;75.00
32706;DHT22;19094;50.972;3.538;2023-10-31T11:46:58;15.10;75.00
32706;DHT22;19094;50.972;3.538;2023-10-31T11:49:46;15.10;75.00
32706;DHT22;19094;50.972;3.538;2023-10-31T11:52:16;15.10;75.00
32706;DHT22;19094;50.972;3.538;2023-10-31T11:54:42;15.10;75.20
32706;DHT22;19094;50.972;3.538;2023-10-31T11:57:08;15.20;75.20
32706;DHT22;19094;50.972;3.538;2023-10-31T11:59:40;15.20;75.20
32706;DHT22;19094;50.972;3.538;2023-10-31T12:02:17;15.20;75.10
32706;DHT22;19094;50.972;3.538;2023-10-31T12:04:44;15.20;74.90
32706;DHT22;19094;50.972;3.538;2023-10-31T12:07:10;15.30;74.80
32706;DHT22;19094;50.972;3.538;2023-10-31T12:09:48;15.30;74.90
32706;DHT22;19094;50.972;3.538;2023-10-31T12:12:15;15.30;74.90
32706;DHT22;19094;50.972;3.538;2023-10-31T12:14:40;15.30;75.00
32706;DHT22;19094;50.972;3.538;2023-10-31T12:17:07;15.30;75.10
32706;DHT22;19094;50.972;3.538;2023-10-31T12:19:33;15.30;75.00
32706;DHT22;19094;50.972;3.538;2023-10-31T12:21:59;15.40;74.90
32706;DHT22;19094;50.972;3.538;2023-10-31T12:24:24;15.40;74.80
32706;DHT22;19094;50.972;3.538;2023-10-31T12:26:50;15.40;74.60
32706;DHT22;19094;50.972;3.538;2023-10-31T12:29:20;15.40;74.60
32706;DHT22;19094;50.972;3.538;2023-10-31T12:31:53;15.40;74.50
32706;DHT22;19094;50.972;3.538;2023-10-31T12:34:23;15.40;74.60
32706;DHT22;19094;50.972;3.538;2023-10-31T12:36:52;15.40;74.40
32706;DHT22;19094;50.972;3.538;2023-10-31T12:39:22;15.40;74.60
32706;DHT22;19094;50.972;3.538;2023-10-31T12:41:48;15.40;74.60
32706;DHT22;19094;50.972;3.538;2023-10-31T12:44:21;15.40;74.60
32706;DHT22;19094;50.972;3.538;2023-10-31T12:46:47;15.40;74.60
32706;DHT22;19094;50.972;3.538;2023-10-31T12:49:22;15.50;74.40
32706;DHT22;19094;50.972;3.538;2023-10-31T12:52:04;15.50;74.60
32706;DHT22;19094;50.972;3.538;2023-10-31T12:54:35;15.50;74.30
32706;DHT22;19094;50.972;3.538;2023-10-31T12:57:05;15.50;74.30
32706;DHT22;19094;50.972;3.538;2023-10-31T12:59:33;15.50;74.40
32706;DHT22;19094;50.972;3.538;2023-10-31T13:01:59;15.50;74.60
32706;DHT22;19094;50.972;3.538;2023-10-31T13:04:29;15.50;74.70
32706;DHT22;19094;50.972;3.538;2023-10-31T13:06:59;15.50;74.50
32706;DHT22;19094;50.972;3.538;2023-10-31T13:09:32;15.50;74.40
32706;DHT22;19094;50.972;3.538;2023-10-31T13:12:02;15.50;74.50
32706;DHT22;19094;50.972;3.538;2023-10-31T13:14:29;15.60;74.20
32706;DHT22;19094;50.972;3.538;2023-10-31T13:16:54;15.70;73.70
32706;DHT22;19094;50.972;3.538;2023-10-31T13:19:20;15.90;73.50
32706;DHT22;19094;50.972;3.538;2023-10-31T13:21:46;15.90;73.70
32706;DHT22;19094;50.972;3.538;2023-10-31T13:24:12;16.00;72.90
32706;DHT22;19094;50.972;3.538;2023-10-31T13:26:37;16.00;72.80
32706;DHT22;19094;50.972;3.538;2023-10-31T13:29:03;16.00;72.90
32706;DHT22;19094;50.972;3.538;2023-10-31T13:31:29;16.00;72.80
32706;DHT22;19094;50.972;3.538;2023-10-31T13:33:54;16.00;72.90
32706;DHT22;19094;50.972;3.538;2023-10-31T13:36:20;16.00;72.90
32706;DHT22;19094;50.972;3.538;2023-10-31T13:38:46;16.00;72.80
32706;DHT22;19094;50.972;3.538;2023-10-31T13:41:12;16.00;73.00
32706;DHT22;19094;50.972;3.538;2023-10-31T13:43:37;16.00;73.00
32706;DHT22;19094;50.972;3.538;2023-10-31T13:46:04;16.00;73.00
32706;DHT22;19094;50.972;3.538;2023-10-31T13:48:30;16.00;73.10
32706;DHT22;19094;50.972;3.538;2023-10-31T13:50:55;16.10;73.00
32706;DHT22;19094;50.972;3.538;2023-10-31T13:53:21;16.00;73.00
32706;DHT22;19094;50.972;3.538;2023-10-31T13:55:47;16.00;73.20
32706;DHT22;19094;50.972;3.538;2023-10-31T13:58:14;15.90;73.20
32706;DHT22;19094;50.972;3.538;2023-10-31T14:00:40;15.90;73.30
32706;DHT22;19094;50.972;3.538;2023-10-31T14:03:05;15.90;73.20
32706;DHT22;19094;50.972;3.538;2023-10-31T14:05:31;15.90;73.40
32706;DHT22;19094;50.972;3.538;2023-10-31T14:07:57;16.00;73.30
32706;DHT22;19094;50.972;3.538;2023-10-31T14:10:23;16.00;73.20
32706;DHT22;19094;50.972;3.538;2023-10-31T14:12:49;16.00;73.40
32706;DHT22;19094;50.972;3.538;2023-10-31T14:15:15;16.00;73.40
32706;DHT22;19094;50.972;3.538;2023-10-31T14:17:41;16.00;73.60
32706;DHT22;19094;50.972;3.538;2023-10-31T14:20:07;16.00;73.40
32706;DHT22;19094;50.972;3.538;2023-10-31T14:22:33;16.10;73.10
32706;DHT22;19094;50.972;3.538;2023-10-31T14:24:59;16.10;73.20
32706;DHT22;19094;50.972;3.538;2023-10-31T14:27:24;16.10;73.10
32706;DHT22;19094;50.972;3.538;2023-10-31T14:29:50;16.10;73.00
32706;DHT22;19094;50.972;3.538;2023-10-31T14:32:17;16.20;72.80
32706;DHT22;19094;50.972;3.538;2023-10-31T14:34:43;16.10;73.30
32706;DHT22;19094;50.972;3.538;2023-10-31T14:37:09;16.10;73.40
32706;DHT22;19094;50.972;3.538;2023-10-31T14:39:34;16.00;73.50
32706;DHT22;19094;50.972;3.538;2023-10-31T14:42:00;16.00;73.60
32706;DHT22;19094;50.972;3.538;2023-10-31T14:44:26;15.90;73.90
32706;DHT22;19094;50.972;3.538;2023-10-31T14:46:51;16.00;74.00
32706;DHT22;19094;50.972;3.538;2023-10-31T14:49:19;16.00;73.90
32706;DHT22;19094;50.972;3.538;2023-10-31T14:51:44;16.00;73.80
32706;DHT22;19094;50.972;3.538;2023-10-31T14:54:10;16.10;73.80
32706;DHT22;19094;50.972;3.538;2023-10-31T14:56:36;16.10;73.70
32706;DHT22;19094;50.972;3.538;2023-10-31T14:59:03;16.10;73.80
32706;DHT22;19094;50.972;3.538;2023-10-31T15:01:29;16.10;73.70
32706;DHT22;19094;50.972;3.538;2023-10-31T15:03:55;16.10;73.70
32706;DHT22;19094;50.972;3.538;2023-10-31T15:06:21;16.10;73.70
32706;DHT22;19094;50.972;3.538;2023-10-31T15:08:48;16.20;73.80
32706;DHT22;19094;50.972;3.538;2023-10-31T15:11:15;16.20;73.40
32706;DHT22;19094;50.972;3.538;2023-10-31T15:13:42;16.30;74.10
32706;DHT22;19094;50.972;3.538;2023-10-31T15:16:08;16.30;74.40
32706;DHT22;19094;50.972;3.538;2023-10-31T15:18:33;16.20;73.90
32706;DHT22;19094;50.972;3.538;2023-10-31T15:20:59;16.20;74.00
32706;DHT22;19094;50.972;3.538;2023-10-31T15:23:26;16.10;74.20
32706;DHT22;19094;50.972;3.538;2023-10-31T15:25:55;16.10;74.10
32706;DHT22;19094;50.972;3.538;2023-10-31T15:28:22;16.20;73.90
32706;DHT22;19094;50.972;3.538;2023-10-31T15:30:50;16.10;74.10